createdAt,value
2022-10-23T00:04:35.991Z,9
2022-10-23T00:33:52.806Z,7
2022-10-23T01:03:07.005Z,7
2022-10-23T01:32:27.580Z,9
2022-10-23T02:01:49.931Z,7
2022-10-23T02:30:51.273Z,7
2022-10-23T03:00:13.716Z,6
2022-10-23T03:29:40.310Z,6
2022-10-23T03:59:04.332Z,5
2022-10-23T04:28:22.378Z,5
2022-10-23T04:57:41.243Z,6
2022-10-23T05:26:59.867Z,7
2022-10-23T05:56:20.961Z,5
2022-10-23T06:25:42.835Z,4
2022-10-23T06:55:02.788Z,6
2022-10-23T07:24:12.371Z,5
2022-10-23T07:53:34.257Z,6
2022-10-23T08:22:42.223Z,6
2022-10-23T08:51:58.930Z,6
2022-10-23T09:21:08.430Z,7
2022-10-23T09:50:25.917Z,4
2022-10-23T10:19:39.433Z,7
2022-10-23T10:48:56.557Z,6
2022-10-23T11:18:03.753Z,5
2022-10-23T11:47:12.440Z,7
2022-10-23T12:16:34.766Z,7
2022-10-23T13:14:24.689Z,7
2022-10-23T13:43:46.821Z,9
2022-10-23T14:13:15.806Z,9
2022-10-23T14:42:38.997Z,9
2022-10-23T15:12:02.274Z,7
2022-10-23T15:41:25.891Z,9
2022-10-23T16:10:44.417Z,12
2022-10-23T16:40:04.664Z,12
2022-10-23T17:09:27.022Z,11
2022-10-23T17:38:56.505Z,13
2022-10-23T18:08:16.843Z,22
2022-10-23T18:37:41.799Z,21
2022-10-23T19:07:01.056Z,14
2022-10-23T19:36:17.517Z,23
2022-10-23T20:05:07.269Z,13
2022-10-23T20:34:37.512Z,11
2022-10-23T21:03:56.814Z,7
2022-10-23T21:33:20.291Z,6
2022-10-23T22:02:36.308Z,7
2022-10-23T22:31:54.551Z,7
2022-10-23T23:01:16.232Z,8
2022-10-23T23:30:30.556Z,8
2022-10-23T23:59:42.732Z,11
